| Record Date MM/DD/YYYY | Record Time HH:MM:SS | Record Julian Date NNN day of the year | Air Temperature Max (Degrees Fahrenheit F) | Time Max Air Temperature HH:MM:SS This is the time of max air temp for the prior hour interval listed for record [Time]. | Air Temperature Min (Degrees Fahrenheit F) | Time Min Air Temperature HH:MM:SS This is the time of min air temp for the prior hour interval listed for record [Time]. | Air Temperature Observed (Degrees Fahrenheit F) This is an instantaneous reading at the record [Time]. | Relative Humidity Max (Percent) | Time Max Relative Humidity HH:MM:SS This is the time of max relative humidity for the prior hour interval listed for record [Time]. | Relative Humidity Min (Percent) | Time Min Relative Humidity HH:MM:SS This is the time of min relative humidity for the prior hour interval listed for record [Time]. | Relative Humidity Observed (Percent) This is an instantaneous reading at the record [Time]. | Precipitation (Inches n.nn) rain fall that occurred during the prior hour interval listed for record [Time]. | Wind Speed (Miles Per Hour) Resultant Speed that occurred during the prior hour interval listed for record [Time]. | Wind Direction (Degrees) Resultant Direction that occurred during the prior hour interval listed for record [Time]. | Solar Radiation (Langley's) that occurred during the prior hour interval listed for record [Time]. | Soil Temperature Average at 2 inch depth (Degrees Fahrenheit F) that occurred during the prior hour interval listed for record [Time]. | Soil Temperature Observed at 2 inch depth (Degrees Fahrenheit F) This is an instantaneous reading at the record [Time]. | Soil Temperature Average at 4 inch depth (Degrees Fahrenheit F) that occurred during the prior hour interval listed for record [Time]. | Soil Temperature Observed at 4 inch depth (Degrees Fahrenheit F) This is an instantaneous reading at the record [Time]. |
|---|---|---|---|---|---|---|---|---|---|---|---|---|---|---|---|---|---|---|---|---|
| 08/25/2026 | 0:00:00 | 237 | 73 | 23:20:05 | 72 | 23:51:02 | 72 | 99 | 23:42:05 | 98 | 23:03:02 | 98.8 | 0 | 0.4 | 190 | 0 | 79 | 79 | 83 | 83 |
| 08/25/2026 | 1:00:00 | 237 | 73 | 0:33:03 | 72 | 0:38:05 | 72 | 99 | 0:43:03 | 99 | 0:16:04 | 99.1 | 0 | 0.3 | 314 | 0 | 79 | 78 | 83 | 82 |
| 08/25/2026 | 2:00:00 | 237 | 73 | 1:07:03 | 72 | 1:42:04 | 72 | 100 | 1:57:03 | 99 | 1:27:04 | 99.5 | 0 | 0.4 | 209 | 0 | 78 | 78 | 82 | 82 |
| 08/25/2026 | 3:00:00 | 237 | 73 | 2:20:02 | 72 | 2:00:01 | 73 | 100 | 2:58:05 | 99 | 2:24:01 | 99.6 | 0 | 0.2 | 101 | 0 | 78 | 78 | 82 | 82 |
| 08/25/2026 | 4:00:00 | 237 | 73 | 3:43:05 | 73 | 3:15:00 | 73 | 100 | 3:46:00 | 99 | 3:11:03 | 99.6 | 0 | 0.1 | 92 | 0 | 78 | 78 | 82 | 81 |
| 08/25/2026 | 5:00:00 | 237 | 74 | 4:51:02 | 73 | 4:00:00 | 74 | 100 | 4:51:02 | 100 | 4:08:04 | 99.7 | 0 | 0.1 | 72 | 0 | 78 | 78 | 81 | 81 |
| 08/25/2026 | 6:00:00 | 237 | 74 | 5:48:00 | 74 | 5:00:00 | 74 | 100 | 5:38:04 | 100 | 5:12:04 | 99.7 | 0 | 0.8 | 87 | 0 | 78 | 78 | 81 | 81 |
| 08/25/2026 | 7:00:00 | 237 | 75 | 6:59:03 | 74 | 6:00:03 | 75 | 100 | 6:09:00 | 99 | 6:58:00 | 99.3 | 0.02 | 2.6 | 104 | 2 | 78 | 78 | 81 | 81 |
| 08/25/2026 | 8:00:00 | 237 | 79 | 7:59:05 | 75 | 7:00:02 | 79 | 99 | 7:01:03 | 92 | 7:58:04 | 92.7 | 0 | 2.6 | 119 | 15 | 78 | 78 | 81 | 81 |
| 08/25/2026 | 9:00:00 | 237 | 81 | 9:00:00 | 79 | 8:22:00 | 81 | 93 | 8:07:01 | 89 | 8:55:01 | 90.4 | 0 | 3.7 | 138 | 21 | 79 | 80 | 81 | 82 |
| 08/25/2026 | 10:00:00 | 237 | 83 | 9:36:05 | 81 | 9:00:01 | 83 | 90 | 9:00:00 | 82 | 9:36:00 | 83.4 | 0 | 4.1 | 163 | 33 | 81 | 82 | 82 | 83 |
| 08/25/2026 | 11:00:00 | 237 | 86 | 11:00:00 | 83 | 10:10:00 | 86 | 85 | 10:13:04 | 80 | 10:53:03 | 81.6 | 0 | 5.4 | 204 | 48 | 82 | 83 | 83 | 84 |
| 08/25/2026 | 12:00:00 | 237 | 89 | 11:50:04 | 86 | 11:09:00 | 88 | 83 | 11:00:03 | 71 | 11:51:03 | 76.11 | 0 | 4.9 | 229 | 69 | 85 | 86 | 84 | 85 |
| 08/25/2026 | 13:00:00 | 237 | 88 | 12:02:00 | 87 | 12:38:00 | 87 | 79 | 12:56:04 | 72 | 12:07:05 | 74.94 | 0 | 3.1 | 232 | 23 | 86 | 86 | 86 | 86 |
| 08/25/2026 | 14:00:00 | 237 | 93 | 13:55:05 | 87 | 13:02:00 | 91 | 78 | 13:07:00 | 64 | 13:56:05 | 64.53 | 0 | 3.2 | 219 | 52 | 86 | 87 | 86 | 87 |
| 08/25/2026 | 15:00:00 | 237 | 94 | 14:49:00 | 91 | 14:00:05 | 94 | 69 | 14:02:03 | 56 | 14:46:02 | 59.43 | 0 | 2.4 | 169 | 54 | 88 | 89 | 87 | 88 |
| 08/25/2026 | 16:00:00 | 237 | 95 | 15:53:03 | 93 | 15:17:01 | 95 | 63 | 15:08:05 | 51 | 15:33:00 | 54.68 | 0 | 2.3 | 190 | 43 | 89 | 89 | 88 | 89 |
| 08/25/2026 | 17:00:00 | 237 | 95 | 16:09:03 | 93 | 16:28:03 | 94 | 61 | 16:56:04 | 49 | 16:10:02 | 54.85 | 0 | 1.9 | 198 | 23 | 89 | 89 | 89 | 89 |
| 08/25/2026 | 18:00:00 | 237 | 94 | 17:00:00 | 91 | 18:00:00 | 91 | 63 | 17:59:04 | 53 | 17:01:03 | 61.68 | 0 | 1.8 | 228 | 12 | 88 | 88 | 89 | 89 |
| 08/25/2026 | 19:00:00 | 237 | 91 | 18:00:00 | 83 | 18:59:04 | 83 | 85 | 18:58:00 | 61 | 18:00:03 | 83.9 | 0 | 1.0 | 164 | 2 | 87 | 86 | 89 | 88 |
| 08/25/2026 | 20:00:00 | 237 | 83 | 19:00:01 | 80 | 19:50:00 | 80 | 91 | 19:48:05 | 80 | 19:12:03 | 89.4 | 0 | 0.4 | 324 | 0 | 86 | 85 | 88 | 87 |
| 08/25/2026 | 21:00:00 | 237 | 80 | 20:03:00 | 79 | 20:58:01 | 79 | 91 | 20:48:04 | 88 | 20:26:03 | 90.2 | 0 | 0.6 | 197 | 0 | 84 | 84 | 87 | 87 |
| 08/25/2026 | 22:00:00 | 237 | 79 | 21:13:05 | 78 | 21:45:02 | 78 | 93 | 21:50:02 | 89 | 21:14:00 | 92.8 | 0 | 0.4 | 197 | 0 | 83 | 83 | 86 | 86 |
| 08/25/2026 | 23:00:00 | 237 | 79 | 22:25:04 | 78 | 22:47:03 | 78 | 94 | 22:55:04 | 91 | 22:28:01 | 93.5 | 0 | 0.0 | 113 | 0 | 82 | 82 | 86 | 85 |
| 08/26/2026 | 0:00:00 | 238 | 79 | 23:02:00 | 77 | 23:58:03 | 77 | 96 | 23:37:02 | 93 | 23:03:03 | 95.3 | 0 | 1.0 | 163 | 0 | 82 | 82 | 85 | 85 |
| 08/26/2026 | 1:00:00 | 238 | 77 | 0:35:04 | 75 | 0:59:03 | 75 | 96 | 0:30:01 | 94 | 0:42:01 | 95.6 | 0 | 0.6 | 133 | 0 | 81 | 81 | 84 | 84 |
| 08/26/2026 | 2:00:00 | 238 | 77 | 2:00:00 | 75 | 1:00:01 | 77 | 96 | 1:05:00 | 93 | 1:33:05 | 93.1 | 0 | 0.6 | 220 | 0 | 81 | 80 | 84 | 84 |
| 08/26/2026 | 3:00:00 | 238 | 77 | 2:00:02 | 74 | 2:47:05 | 75 | 96 | 2:54:01 | 92 | 2:04:01 | 94.7 | 0 | 1.2 | 195 | 0 | 80 | 80 | 83 | 83 |
| 08/26/2026 | 4:00:00 | 238 | 76 | 3:44:01 | 75 | 3:00:01 | 75 | 95 | 3:00:01 | 92 | 3:53:04 | 92.3 | 0 | 1.3 | 203 | 0 | 79 | 79 | 83 | 83 |
| 08/26/2026 | 5:00:00 | 238 | 75 | 4:00:00 | 74 | 4:30:03 | 74 | 96 | 4:52:02 | 92 | 4:00:00 | 96.3 | 0 | 1.3 | 156 | 0 | 79 | 79 | 83 | 82 |
| 08/26/2026 | 6:00:00 | 238 | 76 | 5:59:04 | 74 | 5:00:05 | 76 | 97 | 5:43:04 | 96 | 6:00:00 | 96.1 | 0 | 1.5 | 170 | 1 | 79 | 79 | 82 | 82 |
| 08/26/2026 | 7:00:00 | 238 | 79 | 6:58:04 | 76 | 6:00:02 | 79 | 96 | 6:00:00 | 91 | 6:57:04 | 91.3 | 0 | 2.6 | 194 | 6 | 79 | 79 | 82 | 82 |
| 08/26/2026 | 8:00:00 | 238 | 82 | 7:42:01 | 79 | 7:00:00 | 82 | 92 | 7:20:01 | 86 | 7:53:04 | 86.4 | 0 | 3.6 | 212 | 15 | 79 | 80 | 82 | 82 |
| 08/26/2026 | 9:00:00 | 238 | 87 | 8:57:03 | 82 | 8:00:01 | 87 | 87 | 8:05:04 | 76 | 8:59:00 | 77.68 | 0 | 4.3 | 243 | 41 | 81 | 82 | 82 | 83 |
| 08/26/2026 | 10:00:00 | 238 | 92 | 9:59:05 | 87 | 9:00:01 | 92 | 78 | 9:00:03 | 64 | 9:49:03 | 65.41 | 0 | 5.5 | 263 | 54 | 83 | 85 | 83 | 84 |
| 08/26/2026 | 11:00:00 | 238 | 94 | 10:42:02 | 91 | 10:02:02 | 94 | 68 | 10:01:00 | 55 | 10:59:01 | 55.7 | 0 | 5.5 | 271 | 66 | 86 | 88 | 85 | 86 |
| 08/26/2026 | 12:00:00 | 238 | 97 | 12:00:00 | 94 | 11:03:02 | 97 | 62 | 11:03:05 | 48 | 11:32:04 | 53.47 | 0 | 3.8 | 234 | 71 | 90 | 92 | 87 | 88 |
| 08/26/2026 | 13:00:00 | 238 | 99 | 12:49:00 | 97 | 12:18:05 | 98 | 54 | 12:01:03 | 39 | 12:47:05 | 44.39 | 0 | 4.4 | 246 | 71 | 93 | 95 | 90 | 91 |
| 08/26/2026 | 14:00:00 | 238 | 100 | 13:08:00 | 98 | 13:53:00 | 98 | 49 | 13:57:05 | 41 | 13:44:01 | 44.03 | 0 | 5.6 | 261 | 71 | 96 | 97 | 92 | 93 |
| 08/26/2026 | 15:00:00 | 238 | 99 | 14:02:03 | 97 | 14:53:02 | 97 | 49 | 14:13:05 | 40 | 14:03:05 | 45.59 | 0 | 5.4 | 241 | 62 | 97 | 98 | 94 | 94 |
| 08/26/2026 | 16:00:00 | 238 | 98 | 15:55:03 | 96 | 15:30:00 | 97 | 48 | 15:08:05 | 38 | 15:40:01 | 41.6 | 0 | 6.8 | 254 | 49 | 98 | 98 | 95 | 95 |
| 08/26/2026 | 17:00:00 | 238 | 98 | 16:04:04 | 96 | 16:29:01 | 97 | 45 | 16:08:03 | 39 | 16:51:03 | 40.66 | 0 | 7.0 | 279 | 32 | 97 | 97 | 95 | 95 |
| 08/26/2026 | 18:00:00 | 238 | 97 | 17:01:04 | 95 | 17:59:04 | 95 | 46 | 17:42:02 | 40 | 17:01:04 | 45.29 | 0 | 5.0 | 298 | 14 | 96 | 95 | 95 | 95 |
| 08/26/2026 | 19:00:00 | 238 | 95 | 18:00:00 | 89 | 19:00:00 | 89 | 60 | 18:59:05 | 45 | 18:02:01 | 60.43 | 0 | 2.7 | 295 | 2 | 94 | 93 | 94 | 94 |
| 08/26/2026 | 20:00:00 | 238 | 89 | 19:05:02 | 81 | 20:00:00 | 81 | 72 | 20:00:00 | 57 | 19:04:04 | 71.51 | 0 | 5.3 | 34 | 0 | 92 | 91 | 93 | 93 |
| 08/26/2026 | 21:00:00 | 238 | 81 | 20:00:00 | 79 | 20:39:04 | 79 | 76 | 20:48:02 | 68 | 20:59:03 | 68.63 | 0 | 0.8 | 28 | 0 | 90 | 89 | 92 | 91 |
| 08/26/2026 | 22:00:00 | 238 | 79 | 21:00:00 | 72 | 21:42:00 | 73 | 88 | 22:00:00 | 65 | 21:03:05 | 87.5 | 0.02 | 5.0 | 299 | 0 | 88 | 86 | 91 | 90 |
| 08/26/2026 | 23:00:00 | 238 | 73 | 22:00:01 | 71 | 22:42:05 | 71 | 94 | 22:55:05 | 87 | 22:02:04 | 93.3 | 0.02 | 2.2 | 5 | 0 | 85 | 84 | 89 | 88 |
| 08/27/2026 | 0:00:00 | 239 | 72 | 23:46:05 | 71 | 23:00:00 | 72 | 95 | 23:59:05 | 93 | 23:45:00 | 95.1 | 0 | 2.2 | 79 | 0 | 84 | 83 | 88 | 87 |
| 08/27/2026 | 1:00:00 | 239 | 73 | 0:25:05 | 72 | 0:05:05 | 72 | 95 | 0:03:03 | 91 | 0:23:04 | 93 | 0 | 3.9 | 29 | 0 | 82 | 82 | 87 | 86 |
| 08/27/2026 | 2:00:00 | 239 | 72 | 1:24:01 | 71 | 1:41:00 | 72 | 96 | 1:51:02 | 93 | 1:00:02 | 95.8 | 0 | 1.9 | 261 | 0 | 81 | 81 | 86 | 85 |
| 08/27/2026 | 3:00:00 | 239 | 72 | 2:46:05 | 72 | 2:32:04 | 72 | 96 | 2:30:04 | 94 | 2:58:01 | 94.2 | 0 | 2.5 | 330 | 0 | 80 | 80 | 85 | 84 |
| 08/27/2026 | 4:00:00 | 239 | 72 | 3:05:01 | 72 | 3:41:03 | 72 | 97 | 3:59:05 | 94 | 3:01:01 | 97 | 0 | 0.8 | 346 | 0 | 80 | 80 | 84 | 84 |
| 08/27/2026 | 5:00:00 | 239 | 72 | 4:00:01 | 71 | 4:58:01 | 71 | 98 | 5:00:00 | 96 | 4:34:04 | 97.7 | 0 | 1.2 | 319 | 0 | 79 | 79 | 84 | 83 |
| 08/27/2026 | 6:00:00 | 239 | 72 | 5:58:01 | 71 | 5:15:01 | 72 | 99 | 5:39:02 | 98 | 5:10:01 | 98.2 | 0 | 0.3 | 201 | 0 | 79 | 79 | 83 | 83 |
| 08/27/2026 | 7:00:00 | 239 | 74 | 7:00:00 | 72 | 6:02:02 | 74 | 98 | 6:01:01 | 96 | 6:56:03 | 95.9 | 0 | 0.3 | 229 | 3 | 79 | 79 | 83 | 82 |
| 08/27/2026 | 8:00:00 | 239 | 78 | 7:59:03 | 74 | 7:00:00 | 78 | 96 | 7:00:00 | 86 | 7:55:02 | 86.3 | 0 | 2.6 | 292 | 17 | 79 | 80 | 82 | 82 |
| 08/27/2026 | 9:00:00 | 239 | 80 | 9:00:00 | 77 | 8:13:03 | 80 | 89 | 8:06:00 | 81 | 8:53:02 | 81.6 | 0 | 2.8 | 311 | 17 | 80 | 81 | 83 | 83 |
| 08/27/2026 | 10:00:00 | 239 | 83 | 9:53:05 | 80 | 9:00:00 | 83 | 83 | 9:00:05 | 68 | 9:55:04 | 72.57 | 0 | 1.9 | 337 | 34 | 81 | 82 | 83 | 83 |
| 08/27/2026 | 11:00:00 | 239 | 87 | 10:56:01 | 83 | 10:00:00 | 87 | 74 | 10:34:01 | 66 | 10:56:05 | 68.03 | 0 | 3.0 | 1 | 61 | 84 | 85 | 84 | 85 |
| 08/27/2026 | 12:00:00 | 239 | 90 | 11:49:03 | 87 | 11:04:02 | 89 | 70 | 11:08:02 | 60 | 11:56:00 | 61.7 | 0 | 3.8 | 5 | 63 | 87 | 89 | 86 | 87 |
| 08/27/2026 | 13:00:00 | 239 | 93 | 12:52:00 | 89 | 12:00:00 | 91 | 63 | 12:00:02 | 51 | 12:32:00 | 57.09 | 0 | 4.1 | 8 | 76 | 90 | 92 | 88 | 89 |
| 08/27/2026 | 14:00:00 | 239 | 94 | 13:34:05 | 91 | 13:00:01 | 94 | 58 | 13:00:01 | 40 | 13:41:00 | 46.57 | 0 | 4.9 | 349 | 71 | 94 | 95 | 90 | 91 |
| 08/27/2026 | 15:00:00 | 239 | 95 | 14:39:02 | 93 | 14:06:00 | 95 | 51 | 14:16:00 | 44 | 14:55:03 | 46.46 | 0 | 5.5 | 6 | 59 | 95 | 96 | 92 | 93 |
| 08/27/2026 | 16:00:00 | 239 | 96 | 15:17:00 | 94 | 15:04:03 | 95 | 49 | 15:01:04 | 42 | 15:49:05 | 43.39 | 0 | 5.3 | 8 | 49 | 96 | 96 | 93 | 94 |
| 08/27/2026 | 17:00:00 | 239 | 95 | 16:00:03 | 94 | 16:57:04 | 94 | 47 | 16:49:03 | 43 | 16:27:02 | 45.08 | 0 | 5.4 | 14 | 32 | 96 | 95 | 94 | 94 |
| 08/27/2026 | 18:00:00 | 239 | 94 | 17:02:03 | 91 | 17:59:05 | 91 | 53 | 17:59:01 | 45 | 17:03:00 | 52.65 | 0 | 3.7 | 21 | 13 | 94 | 93 | 94 | 94 |
| 08/27/2026 | 19:00:00 | 239 | 91 | 18:00:01 | 84 | 18:59:04 | 84 | 73 | 18:59:05 | 52 | 18:00:01 | 73.24 | 0 | 1.3 | 5 | 1 | 92 | 91 | 93 | 93 |
| 08/27/2026 | 20:00:00 | 239 | 84 | 19:00:01 | 79 | 19:59:05 | 79 | 86 | 19:58:03 | 73 | 19:20:01 | 86.2 | 0 | 0.9 | 241 | 0 | 90 | 89 | 92 | 92 |
| 08/27/2026 | 21:00:00 | 239 | 81 | 20:50:01 | 79 | 20:05:05 | 80 | 88 | 20:25:03 | 75 | 20:49:00 | 83.7 | 0 | 0.3 | 247 | 0 | 88 | 88 | 91 | 90 |
| 08/27/2026 | 22:00:00 | 239 | 80 | 21:00:03 | 78 | 21:59:03 | 78 | 88 | 21:20:03 | 82 | 21:52:05 | 84.6 | 0 | 0.5 | 278 | 0 | 87 | 86 | 90 | 89 |
| 08/27/2026 | 23:00:00 | 239 | 78 | 22:12:01 | 76 | 22:59:05 | 76 | 93 | 23:00:00 | 85 | 22:00:00 | 93 | 0 | 0.5 | 187 | 0 | 86 | 85 | 89 | 89 |
| 08/28/2026 | 0:00:00 | 240 | 76 | 23:39:05 | 76 | 23:00:02 | 76 | 94 | 23:02:03 | 91 | 23:51:05 | 92.1 | 0 | 0.3 | 78 | 0 | 85 | 84 | 88 | 88 |
| 08/28/2026 | 1:00:00 | 240 | 77 | 0:27:02 | 74 | 0:59:04 | 74 | 94 | 0:56:02 | 88 | 0:26:01 | 94.2 | 0 | 1.0 | 97 | 0 | 84 | 83 | 87 | 87 |
| 08/28/2026 | 2:00:00 | 240 | 75 | 1:32:00 | 74 | 1:09:00 | 74 | 96 | 1:12:00 | 92 | 1:54:00 | 93.1 | 0 | 1.1 | 227 | 0 | 83 | 83 | 87 | 86 |
| 08/28/2026 | 3:00:00 | 240 | 74 | 2:00:00 | 73 | 2:51:04 | 73 | 96 | 2:46:02 | 93 | 2:00:01 | 95.5 | 0 | 0.6 | 342 | 0 | 82 | 82 | 86 | 86 |
| 08/28/2026 | 4:00:00 | 240 | 73 | 3:13:01 | 72 | 3:33:04 | 72 | 97 | 3:38:00 | 95 | 3:19:04 | 95.9 | 0 | 0.7 | 356 | 0 | 81 | 81 | 85 | 85 |
| 08/28/2026 | 5:00:00 | 240 | 72 | 4:09:01 | 71 | 4:58:03 | 71 | 98 | 4:46:04 | 96 | 4:00:00 | 97.2 | 0 | 0.9 | 352 | 0 | 81 | 80 | 85 | 84 |
| 08/28/2026 | 6:00:00 | 240 | 72 | 5:34:01 | 71 | 5:53:03 | 71 | 98 | 5:29:00 | 97 | 5:40:02 | 97.5 | 0 | 0.7 | 34 | 0 | 80 | 80 | 84 | 84 |
| 08/28/2026 | 7:00:00 | 240 | 78 | 7:00:00 | 71 | 6:00:02 | 78 | 98 | 6:07:05 | 90 | 6:58:00 | 90.1 | 0 | 1.8 | 359 | 9 | 79 | 79 | 83 | 83 |
| 08/28/2026 | 8:00:00 | 240 | 82 | 7:59:04 | 78 | 7:06:03 | 82 | 90 | 7:00:00 | 75 | 8:00:00 | 75.4 | 0 | 4.6 | 52 | 26 | 80 | 81 | 83 | 83 |
| 08/28/2026 | 9:00:00 | 240 | 87 | 8:52:00 | 82 | 8:00:00 | 86 | 76 | 8:00:03 | 65 | 8:58:03 | 66.77 | 0 | 6.3 | 60 | 42 | 82 | 83 | 84 | 84 |
| 08/28/2026 | 10:00:00 | 240 | 91 | 9:56:01 | 86 | 9:00:00 | 90 | 68 | 9:04:01 | 57 | 9:52:04 | 58.99 | 0 | 5.7 | 56 | 56 | 85 | 87 | 85 | 86 |
| 08/28/2026 | 11:00:00 | 240 | 93 | 11:00:00 | 90 | 10:10:01 | 93 | 62 | 10:10:05 | 51 | 10:57:02 | 52.61 | 0 | 5.1 | 48 | 66 | 89 | 90 | 87 | 88 |
| 08/28/2026 | 12:00:00 | 240 | 96 | 11:40:05 | 93 | 11:01:04 | 94 | 54 | 11:06:00 | 45 | 11:41:05 | 47.01 | 0 | 6.0 | 42 | 74 | 92 | 94 | 89 | 90 |
| 08/28/2026 | 13:00:00 | 240 | 96 | 12:49:04 | 92 | 12:43:04 | 96 | 49 | 12:02:04 | 40 | 12:49:05 | 41.75 | 0 | 6.1 | 38 | 51 | 95 | 95 | 92 | 92 |
| 08/28/2026 | 14:00:00 | 240 | 98 | 13:56:01 | 93 | 13:05:04 | 97 | 44 | 13:09:02 | 35 | 13:57:04 | 36.34 | 0 | 6.6 | 28 | 61 | 95 | 96 | 93 | 93 |
| 08/28/2026 | 15:00:00 | 240 | 98 | 14:13:01 | 94 | 14:46:04 | 95 | 39 | 14:20:04 | 35 | 14:09:02 | 38.41 | 0 | 6.3 | 32 | 57 | 97 | 98 | 94 | 95 |
| 08/28/2026 | 16:00:00 | 240 | 95 | 15:07:04 | 93 | 15:32:04 | 95 | 39 | 15:03:02 | 35 | 15:48:00 | 36.22 | 0 | 5.4 | 26 | 30 | 98 | 97 | 95 | 95 |
| 08/28/2026 | 17:00:00 | 240 | 96 | 16:26:03 | 94 | 16:08:01 | 94 | 38 | 16:04:04 | 33 | 16:50:02 | 33.88 | 0 | 5.9 | 26 | 31 | 97 | 96 | 95 | 95 |
| 08/28/2026 | 18:00:00 | 240 | 94 | 17:02:00 | 90 | 17:59:00 | 90 | 40 | 17:58:05 | 32 | 17:13:04 | 40.3 | 0 | 5.6 | 24 | 16 | 95 | 95 | 94 | 94 |
| 08/28/2026 | 19:00:00 | 240 | 90 | 18:00:01 | 84 | 18:58:02 | 84 | 53 | 18:59:05 | 40 | 18:01:05 | 52.4 | 0 | 4.0 | 18 | 2 | 94 | 92 | 94 | 93 |
| 08/28/2026 | 20:00:00 | 240 | 84 | 19:00:00 | 80 | 19:57:05 | 80 | 60 | 19:57:00 | 52 | 19:00:03 | 59.37 | 0 | 2.8 | 23 | 0 | 91 | 90 | 92 | 92 |
| 08/28/2026 | 21:00:00 | 240 | 80 | 20:00:00 | 78 | 20:59:05 | 78 | 63 | 20:59:03 | 59 | 20:00:03 | 63.02 | 0 | 2.4 | 21 | 0 | 89 | 88 | 91 | 90 |
| 08/28/2026 | 22:00:00 | 240 | 78 | 21:00:00 | 77 | 21:17:02 | 77 | 65 | 21:15:02 | 61 | 21:51:04 | 61.48 | 0 | 2.6 | 19 | 0 | 87 | 87 | 90 | 89 |
| 08/28/2026 | 23:00:00 | 240 | 78 | 22:04:02 | 76 | 22:59:03 | 76 | 64 | 22:59:05 | 61 | 22:03:02 | 64.19 | 0 | 2.6 | 24 | 0 | 86 | 85 | 89 | 88 |
| 08/29/2026 | 0:00:00 | 241 | 76 | 23:00:03 | 73 | 23:59:05 | 73 | 74 | 23:59:01 | 64 | 23:00:01 | 72.83 | 0 | 1.6 | 39 | 0 | 85 | 84 | 88 | 87 |
| 08/29/2026 | 1:00:00 | 241 | 74 | 0:10:02 | 71 | 0:59:04 | 71 | 76 | 0:59:04 | 70 | 0:08:03 | 76.29 | 0 | 1.5 | 41 | 0 | 84 | 83 | 87 | 86 |
| 08/29/2026 | 2:00:00 | 241 | 72 | 1:32:00 | 70 | 1:59:05 | 70 | 81 | 2:00:00 | 75 | 1:30:03 | 80.7 | 0 | 2.3 | 20 | 0 | 83 | 82 | 86 | 85 |
| 08/29/2026 | 3:00:00 | 241 | 70 | 2:00:00 | 68 | 2:58:05 | 68 | 85 | 2:59:03 | 81 | 2:00:02 | 84.8 | 0 | 1.8 | 13 | 0 | 82 | 81 | 85 | 84 |
| 08/29/2026 | 4:00:00 | 241 | 68 | 3:02:02 | 67 | 3:59:05 | 67 | 89 | 3:51:04 | 85 | 3:02:03 | 88.6 | 0 | 1.7 | 14 | 0 | 81 | 80 | 84 | 84 |
| 08/29/2026 | 5:00:00 | 241 | 67 | 4:13:02 | 64 | 4:56:05 | 65 | 93 | 4:59:03 | 88 | 4:15:04 | 93.2 | 0 | 0.7 | 4 | 0 | 80 | 79 | 83 | 83 |
| 08/29/2026 | 6:00:00 | 241 | 66 | 5:59:05 | 65 | 5:00:00 | 66 | 93 | 5:00:01 | 91 | 5:58:01 | 91.4 | 0 | 0.9 | 327 | 1 | 79 | 79 | 83 | 82 |
| 08/29/2026 | 7:00:00 | 241 | 74 | 6:59:05 | 66 | 6:00:01 | 74 | 92 | 6:02:03 | 75 | 7:00:00 | 75.32 | 0 | 1.2 | 4 | 11 | 78 | 78 | 82 | 82 |
| 08/29/2026 | 8:00:00 | 241 | 80 | 7:58:00 | 74 | 7:00:02 | 80 | 76 | 7:00:05 | 62 | 7:59:00 | 62.77 | 0 | 2.4 | 41 | 26 | 79 | 80 | 82 | 82 |
| 08/29/2026 | 9:00:00 | 241 | 85 | 8:52:01 | 80 | 8:00:00 | 85 | 64 | 8:02:00 | 56 | 8:53:04 | 58.5 | 0 | 3.1 | 85 | 43 | 81 | 82 | 82 | 83 |
| 08/29/2026 | 10:00:00 | 241 | 90 | 9:59:04 | 85 | 9:00:00 | 90 | 59 | 9:02:00 | 45 | 9:53:04 | 45.14 | 0 | 2.9 | 110 | 57 | 84 | 86 | 84 | 85 |
| 08/29/2026 | 11:00:00 | 241 | 93 | 10:57:03 | 89 | 10:01:02 | 93 | 48 | 10:02:01 | 36 | 10:57:04 | 37.87 | 0 | 3.0 | 72 | 68 | 88 | 89 | 86 | 87 |
| 08/29/2026 | 12:00:00 | 241 | 95 | 11:47:04 | 91 | 11:39:01 | 94 | 39 | 11:18:04 | 33 | 11:58:01 | 33.85 | 0 | 4.0 | 336 | 64 | 91 | 92 | 88 | 89 |
| 08/29/2026 | 13:00:00 | 241 | 96 | 12:58:00 | 93 | 12:21:02 | 95 | 38 | 12:02:01 | 29 | 12:56:04 | 29.81 | 0 | 4.8 | 333 | 72 | 93 | 94 | 90 | 91 |
| 08/29/2026 | 14:00:00 | 241 | 96 | 13:57:00 | 93 | 13:08:03 | 95 | 34 | 13:17:01 | 30 | 13:49:00 | 30.25 | 0 | 4.5 | 342 | 72 | 95 | 96 | 92 | 93 |
| 08/29/2026 | 15:00:00 | 241 | 97 | 14:55:03 | 94 | 14:01:03 | 96 | 33 | 14:07:04 | 28 | 14:59:02 | 28.86 | 0 | 3.7 | 356 | 63 | 97 | 97 | 94 | 95 |
| 08/29/2026 | 16:00:00 | 241 | 97 | 15:09:02 | 94 | 15:36:01 | 96 | 31 | 15:38:01 | 27 | 15:09:03 | 30.23 | 0 | 4.4 | 67 | 50 | 97 | 97 | 95 | 95 |
| 08/29/2026 | 17:00:00 | 241 | 97 | 16:38:02 | 94 | 16:58:04 | 95 | 30 | 16:47:04 | 27 | 16:41:01 | 28.75 | 0 | 2.8 | 67 | 33 | 97 | 96 | 96 | 96 |
| 08/29/2026 | 18:00:00 | 241 | 95 | 17:01:01 | 91 | 17:57:01 | 91 | 35 | 17:52:00 | 28 | 17:30:02 | 31.35 | 0 | 3.3 | 76 | 15 | 95 | 94 | 95 | 95 |
| 08/29/2026 | 19:00:00 | 241 | 92 | 18:00:03 | 79 | 19:00:00 | 79 | 61 | 18:57:04 | 30 | 18:01:03 | 58.09 | 0 | 1.8 | 27 | 2 | 93 | 92 | 95 | 94 |
| 08/29/2026 | 20:00:00 | 241 | 80 | 19:59:04 | 76 | 19:41:00 | 80 | 62 | 19:03:01 | 52 | 19:59:02 | 52 | 0 | 2.1 | 335 | 0 | 90 | 89 | 93 | 93 |
| 08/29/2026 | 21:00:00 | 241 | 81 | 20:15:01 | 73 | 20:47:00 | 74 | 74 | 20:43:00 | 49 | 20:11:04 | 72.89 | 0 | 1.1 | 357 | 0 | 88 | 87 | 92 | 91 |
| 08/29/2026 | 22:00:00 | 241 | 73 | 21:00:00 | 71 | 21:59:03 | 71 | 77 | 21:56:01 | 69 | 21:18:03 | 76.36 | 0 | 0.2 | 344 | 0 | 86 | 85 | 90 | 90 |
| 08/29/2026 | 23:00:00 | 241 | 71 | 22:38:04 | 69 | 23:00:00 | 69 | 82 | 23:00:00 | 74 | 22:36:05 | 81.7 | 0 | 0.6 | 351 | 0 | 85 | 84 | 89 | 88 |
| 08/30/2026 | 0:00:00 | 242 | 69 | 23:57:00 | 68 | 23:11:00 | 69 | 86 | 23:09:04 | 81 | 23:54:02 | 81.3 | 0 | 0.4 | 336 | 0 | 83 | 83 | 88 | 87 |
| 08/30/2026 | 1:00:00 | 242 | 69 | 0:05:01 | 68 | 0:54:05 | 68 | 85 | 0:24:03 | 78 | 0:12:00 | 83.4 | 0 | 0.1 | 332 | 0 | 82 | 82 | 87 | 86 |
| 08/30/2026 | 2:00:00 | 242 | 69 | 1:12:00 | 68 | 1:59:05 | 68 | 86 | 1:50:05 | 80 | 1:25:01 | 85.1 | 0 | 0.9 | 352 | 0 | 81 | 81 | 86 | 85 |
| 08/30/2026 | 3:00:00 | 242 | 69 | 2:35:01 | 67 | 2:05:00 | 69 | 87 | 2:49:02 | 81 | 2:32:04 | 84 | 0 | 1.1 | 13 | 0 | 81 | 80 | 85 | 85 |
| 08/30/2026 | 4:00:00 | 242 | 69 | 3:02:03 | 68 | 3:34:02 | 69 | 89 | 3:31:04 | 84 | 3:00:00 | 85.7 | 0 | 1.1 | 23 | 0 | 80 | 80 | 84 | 84 |
| 08/30/2026 | 5:00:00 | 242 | 69 | 4:14:05 | 68 | 4:59:03 | 68 | 87 | 5:00:00 | 83 | 4:38:02 | 87.3 | 0 | 1.1 | 56 | 0 | 79 | 79 | 84 | 84 |
| 08/30/2026 | 6:00:00 | 242 | 69 | 5:59:05 | 68 | 5:02:04 | 69 | 88 | 5:36:04 | 86 | 5:21:00 | 87.5 | 0 | 0.2 | 78 | 0 | 79 | 79 | 83 | 83 |
| 08/30/2026 | 7:00:00 | 242 | 77 | 6:55:03 | 69 | 6:00:00 | 77 | 88 | 6:06:00 | 75 | 6:56:00 | 77.59 | 0 | 1.2 | 133 | 9 | 79 | 79 | 83 | 83 |
| 08/30/2026 | 8:00:00 | 242 | 84 | 7:59:00 | 77 | 7:00:00 | 83 | 78 | 7:00:04 | 66 | 7:59:04 | 66.65 | 0 | 3.8 | 143 | 25 | 79 | 80 | 83 | 83 |
| 08/30/2026 | 9:00:00 | 242 | 89 | 9:00:00 | 83 | 8:02:02 | 89 | 69 | 8:02:03 | 56 | 8:55:00 | 57.76 | 0 | 3.8 | 166 | 42 | 81 | 83 | 83 | 84 |
| 08/30/2026 | 10:00:00 | 242 | 93 | 10:00:00 | 89 | 9:04:00 | 93 | 58 | 9:01:00 | 48 | 9:59:05 | 48.27 | 0 | 3.3 | 169 | 55 | 84 | 86 | 85 | 85 |
| 08/30/2026 | 11:00:00 | 242 | 96 | 10:50:05 | 92 | 10:10:02 | 95 | 52 | 10:12:04 | 43 | 10:46:02 | 44.48 | 0 | 3.9 | 154 | 67 | 88 | 90 | 87 | 88 |
| 08/30/2026 | 12:00:00 | 242 | 97 | 11:11:00 | 93 | 11:24:03 | 95 | 49 | 11:58:00 | 43 | 11:12:02 | 46 | 0 | 3.4 | 188 | 62 | 91 | 93 | 89 | 90 |
| 08/30/2026 | 13:00:00 | 242 | 98 | 12:40:02 | 95 | 12:49:01 | 96 | 49 | 12:50:03 | 43 | 12:38:02 | 45.86 | 0 | 4.3 | 152 | 66 | 94 | 95 | 91 | 92 |
| 08/30/2026 | 14:00:00 | 242 | 99 | 13:52:03 | 96 | 13:59:05 | 96 | 47 | 13:00:01 | 40 | 13:37:01 | 45.29 | 0 | 5.0 | 152 | 70 | 96 | 97 | 93 | 94 |
| 08/30/2026 | 15:00:00 | 242 | 99 | 14:52:05 | 94 | 14:33:03 | 99 | 48 | 14:27:04 | 39 | 14:53:00 | 40.13 | 0 | 3.5 | 155 | 50 | 97 | 97 | 95 | 95 |
| 08/30/2026 | 16:00:00 | 242 | 99 | 15:01:03 | 95 | 15:32:01 | 98 | 46 | 15:36:03 | 40 | 15:00:01 | 42.7 | 0 | 4.7 | 125 | 39 | 97 | 97 | 96 | 96 |
| 08/30/2026 | 17:00:00 | 242 | 98 | 16:00:01 | 94 | 16:49:01 | 95 | 46 | 16:48:05 | 41 | 16:31:01 | 45.02 | 0 | 4.6 | 128 | 23 | 96 | 96 | 96 | 96 |
| 08/30/2026 | 18:00:00 | 242 | 95 | 17:00:01 | 91 | 18:00:00 | 91 | 53 | 17:59:05 | 45 | 17:01:03 | 53.03 | 0 | 4.0 | 121 | 5 | 95 | 94 | 96 | 95 |
| 08/30/2026 | 19:00:00 | 242 | 91 | 18:03:01 | 87 | 18:59:05 | 87 | 59 | 19:00:00 | 53 | 18:02:01 | 59.28 | 0 | 3.2 | 115 | 1 | 93 | 92 | 95 | 94 |
| 08/30/2026 | 20:00:00 | 242 | 87 | 19:00:00 | 84 | 20:00:00 | 84 | 66 | 20:00:00 | 59 | 19:01:05 | 65.75 | 0 | 2.3 | 108 | 0 | 91 | 90 | 94 | 93 |
| 08/30/2026 | 21:00:00 | 242 | 84 | 20:00:01 | 82 | 20:37:03 | 82 | 71 | 20:28:01 | 66 | 20:01:03 | 69.19 | 0 | 2.0 | 113 | 0 | 89 | 88 | 92 | 92 |
| 08/30/2026 | 22:00:00 | 242 | 82 | 21:01:05 | 79 | 21:54:04 | 79 | 78 | 21:47:05 | 69 | 21:01:01 | 76.53 | 0 | 1.9 | 126 | 0 | 88 | 87 | 91 | 91 |
| 08/30/2026 | 23:00:00 | 242 | 80 | 22:11:01 | 79 | 22:56:03 | 79 | 77 | 22:56:02 | 75 | 22:14:00 | 75.96 | 0 | 2.3 | 104 | 0 | 86 | 86 | 90 | 90 |
| 08/31/2026 | 0:00:00 | 243 | 80 | 23:00:03 | 77 | 23:59:05 | 77 | 81 | 0:00:00 | 76 | 23:00:04 | 80.6 | 0 | 1.5 | 125 | 0 | 85 | 85 | 89 | 89 |
| 08/31/2026 | 1:00:00 | 243 | 78 | 0:00:02 | 76 | 0:42:00 | 76 | 84 | 0:42:01 | 81 | 0:00:00 | 83.9 | 0 | 1.6 | 122 | 0 | 85 | 84 | 89 | 88 |
| 08/31/2026 | 2:00:00 | 243 | 76 | 1:00:02 | 74 | 1:45:00 | 74 | 90 | 1:48:04 | 84 | 1:00:01 | 90.1 | 0 | 1.2 | 151 | 0 | 84 | 83 | 88 | 88 |
| 08/31/2026 | 3:00:00 | 243 | 74 | 2:10:00 | 74 | 2:58:02 | 74 | 90 | 2:00:00 | 88 | 2:16:04 | 89.3 | 0 | 0.1 | 241 | 0 | 83 | 83 | 87 | 87 |
| 08/31/2026 | 4:00:00 | 243 | 74 | 3:58:05 | 73 | 3:45:00 | 74 | 93 | 3:48:05 | 89 | 3:02:01 | 90.5 | 0 | 0.6 | 166 | 0 | 82 | 82 | 87 | 86 |
| 08/31/2026 | 5:00:00 | 243 | 74 | 4:01:05 | 72 | 4:59:00 | 72 | 93 | 5:00:00 | 90 | 4:06:05 | 92.7 | 0 | 0.3 | 277 | 0 | 82 | 81 | 86 | 86 |
| 08/31/2026 | 6:00:00 | 243 | 73 | 5:59:04 | 72 | 5:29:00 | 73 | 94 | 5:49:05 | 92 | 5:59:03 | 92.4 | 0 | 0.2 | 342 | 0 | 81 | 81 | 85 | 85 |
| 08/31/2026 | 7:00:00 | 243 | 81 | 6:59:04 | 73 | 6:00:00 | 81 | 93 | 6:03:02 | 79 | 6:40:04 | 80.5 | 0 | 0.4 | 96 | 10 | 81 | 81 | 85 | 85 |
| 08/31/2026 | 8:00:00 | 243 | 86 | 7:36:00 | 81 | 7:00:01 | 86 | 81 | 7:00:04 | 71 | 7:38:03 | 72.41 | 0 | 1.7 | 189 | 26 | 82 | 82 | 85 | 85 |
| 08/31/2026 | 9:00:00 | 243 | 91 | 8:56:03 | 85 | 8:02:00 | 91 | 74 | 8:05:02 | 59 | 8:58:04 | 59.57 | 0 | 2.7 | 226 | 42 | 83 | 85 | 85 | 86 |
| 08/31/2026 | 10:00:00 | 243 | 94 | 9:52:01 | 91 | 9:20:01 | 93 | 60 | 9:20:03 | 51 | 9:52:05 | 52.68 | 0 | 3.2 | 190 | 56 | 86 | 88 | 87 | 88 |
| 08/31/2026 | 11:00:00 | 243 | 97 | 10:47:04 | 92 | 10:13:05 | 93 | 55 | 10:37:02 | 47 | 10:48:00 | 50.7 | 0 | 3.2 | 166 | 59 | 90 | 91 | 89 | 90 |
| 08/31/2026 | 12:00:00 | 243 | 97 | 11:39:02 | 93 | 11:01:04 | 97 | 53 | 11:03:00 | 44 | 11:45:04 | 45.03 | 0 | 4.0 | 134 | 68 | 92 | 94 | 91 | 92 |
| 08/31/2026 | 13:00:00 | 243 | 99 | 12:20:03 | 96 | 12:36:01 | 98 | 47 | 12:14:04 | 41 | 12:50:00 | 42.17 | 0 | 4.7 | 144 | 79 | 95 | 97 | 93 | 94 |
| 08/31/2026 | 14:00:00 | 243 | 100 | 13:24:02 | 96 | 13:41:02 | 99 | 45 | 13:42:05 | 38 | 13:22:02 | 42.22 | 0 | 4.1 | 153 | 69 | 98 | 99 | 95 | 96 |
| 08/31/2026 | 15:00:00 | 243 | 100 | 14:43:00 | 96 | 14:32:02 | 98 | 43 | 14:32:04 | 37 | 14:43:01 | 39.91 | 0 | 3.8 | 117 | 57 | 99 | 99 | 97 | 97 |
| 08/31/2026 | 16:00:00 | 243 | 100 | 15:48:05 | 98 | 15:35:03 | 99 | 42 | 15:36:00 | 38 | 15:46:05 | 40.94 | 0 | 4.5 | 71 | 52 | 99 | 99 | 98 | 98 |
| 08/31/2026 | 17:00:00 | 243 | 99 | 16:00:01 | 96 | 16:25:02 | 97 | 44 | 16:29:05 | 40 | 16:06:02 | 41.88 | 0 | 5.7 | 82 | 21 | 99 | 98 | 98 | 98 |
| 08/31/2026 | 18:00:00 | 243 | 97 | 17:00:01 | 91 | 18:00:00 | 91 | 54 | 18:00:00 | 42 | 17:00:04 | 53.69 | 0 | 2.8 | 131 | 8 | 97 | 96 | 98 | 97 |
| 08/31/2026 | 19:00:00 | 243 | 91 | 18:00:00 | 85 | 18:59:02 | 85 | 66 | 19:00:00 | 54 | 18:00:03 | 65.71 | 0 | 1.4 | 132 | 1 | 95 | 94 | 97 | 96 |
| 08/31/2026 | 20:00:00 | 243 | 87 | 19:37:00 | 85 | 19:05:05 | 85 | 68 | 19:04:02 | 60 | 19:36:00 | 63.55 | 0 | 2.0 | 104 | 0 | 93 | 92 | 96 | 95 |
| 08/31/2026 | 21:00:00 | 243 | 86 | 20:04:04 | 84 | 20:57:01 | 84 | 67 | 20:56:05 | 63 | 20:04:01 | 66.73 | 0 | 2.4 | 106 | 0 | 91 | 90 | 94 | 94 |
| 08/31/2026 | 22:00:00 | 243 | 84 | 21:00:00 | 83 | 21:42:04 | 83 | 70 | 21:42:03 | 67 | 21:00:02 | 69.51 | 0 | 2.1 | 110 | 0 | 90 | 89 | 93 | 93 |
| 08/31/2026 | 23:00:00 | 243 | 83 | 22:00:01 | 81 | 22:57:01 | 81 | 75 | 22:57:03 | 69 | 22:00:02 | 74.48 | 0 | 2.0 | 99 | 0 | 88 | 88 | 92 | 92 |
| 09/01/2026 | 0:00:00 | 244 | 81 | 23:00:00 | 78 | 23:45:05 | 79 | 80 | 23:49:01 | 74 | 23:00:00 | 78.01 | 0 | 1.1 | 120 | 0 | 87 | 87 | 91 | 91 |
| 09/01/2026 | 1:00:00 | 244 | 80 | 0:03:01 | 77 | 0:59:03 | 77 | 83 | 1:00:00 | 77 | 0:03:04 | 83.3 | 0 | 0.8 | 276 | 0 | 86 | 86 | 90 | 90 |
| 09/01/2026 | 2:00:00 | 244 | 77 | 1:00:02 | 76 | 1:26:04 | 76 | 86 | 1:28:05 | 83 | 1:00:03 | 84.9 | 0 | 0.5 | 189 | 0 | 85 | 85 | 90 | 89 |
| 09/01/2026 | 3:00:00 | 244 | 76 | 2:13:00 | 75 | 2:34:02 | 76 | 89 | 2:36:05 | 85 | 2:05:00 | 86 | 0 | 0.6 | 222 | 0 | 84 | 84 | 89 | 88 |
| 09/01/2026 | 4:00:00 | 244 | 76 | 3:00:01 | 74 | 3:53:02 | 74 | 90 | 3:58:05 | 86 | 3:10:04 | 90 | 0 | 0.2 | 43 | 0 | 84 | 83 | 88 | 88 |
| 09/01/2026 | 5:00:00 | 244 | 74 | 4:06:05 | 73 | 4:42:03 | 73 | 92 | 4:59:05 | 89 | 4:15:03 | 91.9 | 0 | 0.1 | 18 | 0 | 83 | 83 | 87 | 87 |
| 09/01/2026 | 6:00:00 | 244 | 73 | 5:00:02 | 72 | 5:28:01 | 73 | 95 | 5:38:05 | 91 | 5:04:00 | 93.5 | 0 | 0.5 | 189 | 0 | 82 | 82 | 87 | 87 |
| 09/01/2026 | 7:00:00 | 244 | 82 | 7:00:00 | 73 | 6:00:01 | 82 | 94 | 6:00:00 | 78 | 7:00:00 | 78.47 | 0 | 0.4 | 159 | 10 | 82 | 82 | 86 | 86 |
| 09/01/2026 | 8:00:00 | 244 | 87 | 7:58:03 | 82 | 7:00:00 | 87 | 79 | 7:00:00 | 65 | 7:59:01 | 66.53 | 0 | 1.3 | 198 | 25 | 83 | 83 | 86 | 86 |
| Average | 84.11 | 81.14 | 82.64 | 74.46 | 67.03 | 70.72 | 0 | 2.55 | 20.58 | 86.5 | 86.55 | 88.15 | 88.14 | |||||||
| Total | 0.06 |